Time;durP1;ratioP1;P1;durP2;ratioP2;P2;SDS_P1;SDS_P2;PMS_P1;PMS_P2;Temp;Humidity;BMP_temperature;BMP_pressure;BME280_temperature;BME280_humidity;BME280_pressure;Samples;Min_cycle;Max_cycle;Signal;HPM_P1;HPM_P2
2022/02/04 00:21:49;;;;;;;58.08;19.17;;;;;;;1.30;100.00;100534.76;1661977;85;21600;-87
2022/02/04 00:23:58;;;;;;;55.30;19.65;;;;;;;1.29;100.00;100539.73;1658649;85;21129;-87
2022/02/04 00:26:30;;;;;;;57.05;19.82;;;;;;;1.30;100.00;100528.94;1670575;85;21068;-89
2022/02/04 00:29:07;;;;;;;53.98;19.67;;;;;;;1.27;100.00;100533.83;1679699;85;20955;-87
2022/02/04 00:31:40;;;;;;;54.45;18.82;;;;;;;1.27;100.00;100528.52;1679194;85;21155;-87
2022/02/04 00:41:46;;;;;;;49.10;18.10;;;;;;;1.25;100.00;100530.04;1633002;87;21053;-88
2022/02/04 00:49:51;;;;;;;44.48;16.97;;;;;;;1.14;100.00;100538.06;1570393;90;21015;-90
2022/02/04 01:13:18;;;;;;;37.50;14.35;;;;;;;0.81;100.00;100538.45;1524832;94;21549;-88
2022/02/04 01:26:33;;;;;;;40.73;14.05;;;;;;;0.77;100.00;100552.62;1525184;94;21140;-87
2022/02/04 01:29:00;;;;;;;37.50;13.95;;;;;;;0.75;100.00;100549.84;1525209;94;21116;-87
2022/02/04 01:31:26;;;;;;;41.50;14.30;;;;;;;0.74;100.00;100549.03;1539844;89;22074;-87
2022/02/04 01:33:53;;;;;;;36.35;14.00;;;;;;;0.74;100.00;100554.34;1590676;89;20928;-88
2022/02/04 01:36:20;;;;;;;37.73;14.33;;;;;;;0.72;100.00;100557.69;1593487;88;22586;-88
2022/02/04 01:38:46;;;;;;;34.92;13.80;;;;;;;0.73;100.00;100565.94;1633406;86;21092;-87
2022/02/04 01:41:13;;;;;;;37.17;14.45;;;;;;;0.72;100.00;100559.01;1651526;86;21079;-86
2022/02/04 01:43:41;;;;;;;37.88;14.58;;;;;;;0.73;100.00;100561.96;1653527;86;21138;-88
2022/02/04 01:46:11;;;;;;;40.65;15.60;;;;;;;0.79;100.00;100567.80;1771006;81;21070;-87
2022/02/04 01:48:40;;;;;;;41.05;15.65;;;;;;;0.79;100.00;100560.36;1770728;81;21159;-88
2022/02/04 01:51:10;;;;;;;44.45;15.95;;;;;;;0.79;100.00;100563.83;1771074;81;21105;-87
2022/02/04 01:53:36;;;;;;;47.00;16.05;;;;;;;0.80;100.00;100571.30;1776864;80;21030;-88
2022/02/04 01:56:08;;;;;;;40.20;15.35;;;;;;;0.77;100.00;100568.53;1782004;80;21420;-90
2022/02/04 01:58:36;;;;;;;42.20;15.43;;;;;;;0.77;100.00;100565.06;1775092;80;20980;-87
2022/02/04 02:01:03;;;;;;;46.33;16.48;;;;;;;0.75;100.00;100566.57;1774018;80;20993;-88
2022/02/04 02:03:29;;;;;;;38.98;15.63;;;;;;;0.71;100.00;100565.81;1773952;80;21025;-87
2022/02/04 02:06:00;;;;;;;38.10;14.68;;;;;;;0.66;100.00;100578.36;1775987;80;21106;-87
2022/02/04 02:08:23;;;;;;;41.55;15.48;;;;;;;0.66;100.00;100570.41;1770511;80;21064;-87
2022/02/04 02:10:50;;;;;;;44.27;15.98;;;;;;;0.67;100.00;100575.49;1774327;80;21056;-87
2022/02/04 02:51:30;;;;;;;52.95;17.07;;;;;;;0.22;100.00;100590.90;1774014;80;21033;-87
2022/02/04 02:58:31;;;;;;;48.28;16.23;;;;;;;0.18;100.00;100591.49;1670341;85;21070;-86
2022/02/04 03:01:05;;;;;;;44.80;14.75;;;;;;;0.17;100.00;100592.48;1670129;85;21086;-86
2022/02/04 03:03:30;;;;;;;45.80;14.25;;;;;;;0.17;100.00;100584.53;1666655;85;21090;-86
2022/02/04 03:05:55;;;;;;;42.48;14.80;;;;;;;0.15;100.00;100586.06;1669946;83;21121;-88
2022/02/04 03:08:21;;;;;;;43.35;14.78;;;;;;;0.17;100.00;100591.16;1670637;85;20976;-87
2022/02/04 03:10:56;;;;;;;46.25;15.80;;;;;;;0.14;100.00;100589.70;1670411;85;21054;-85
2022/02/04 03:13:26;;;;;;;40.50;14.78;;;;;;;0.12;100.00;100593.07;1670689;85;21155;-86
2022/02/04 03:16:02;;;;;;;43.68;14.15;;;;;;;0.10;100.00;100589.78;1666107;84;21530;-86
2022/02/04 03:18:25;;;;;;;44.75;15.15;;;;;;;0.10;100.00;100583.16;1662575;84;21050;-87
2022/02/04 03:20:55;;;;;;;42.43;14.90;;;;;;;0.15;100.00;100587.90;1666528;84;21157;-88
2022/02/04 03:23:21;;;;;;;44.08;15.70;;;;;;;0.15;100.00;100589.23;1666095;84;21046;-86
2022/02/04 03:25:51;;;;;;;42.05;15.03;;;;;;;0.15;100.00;100594.02;1666273;84;21226;-86
2022/02/04 03:28:20;;;;;;;40.58;14.73;;;;;;;0.14;100.00;100592.36;1665742;84;21066;-86
2022/02/04 03:30:44;;;;;;;48.13;16.75;;;;;;;0.14;100.00;100595.00;1662810;85;21117;-86
2022/02/04 03:33:12;;;;;;;44.88;15.20;;;;;;;0.20;100.00;100599.53;1666433;84;21114;-87
2022/02/04 03:35:39;;;;;;;46.37;15.30;;;;;;;0.25;100.00;100598.16;1697953;81;21069;-87
2022/02/04 03:38:05;;;;;;;49.05;15.88;;;;;;;0.26;100.00;100595.81;1760484;81;21853;-86
2022/02/04 03:40:31;;;;;;;45.48;15.35;;;;;;;0.21;100.00;100595.89;1760434;80;21085;-86
2022/02/04 03:42:57;;;;;;;43.70;15.08;;;;;;;0.22;100.00;100599.36;1760365;80;20879;-86
2022/02/04 03:45:23;;;;;;;47.65;15.53;;;;;;;0.20;100.00;100604.02;1760871;81;21627;-86
2022/02/04 03:47:50;;;;;;;44.25;15.65;;;;;;;0.19;100.00;100603.20;1760833;81;21562;-86
2022/02/04 03:50:15;;;;;;;45.00;16.67;;;;;;;0.14;100.00;100606.92;1760821;81;21480;-86
2022/02/04 03:52:42;;;;;;;44.15;15.60;;;;;;;0.11;100.00;100606.50;1760470;81;20911;-87
2022/02/04 03:55:10;;;;;;;44.67;15.63;;;;;;;0.07;100.00;100607.39;1760863;81;21049;-86
2022/02/04 03:57:37;;;;;;;48.30;17.35;;;;;;;0.05;100.00;100612.05;1760199;81;21013;-86
2022/02/04 04:00:07;;;;;;;43.55;16.15;;;;;;;0.05;100.00;100609.91;1761020;81;21125;-86
2022/02/04 04:02:33;;;;;;;45.85;15.13;;;;;;;0.04;100.00;100618.37;1734130;81;21003;-86
2022/02/04 04:04:59;;;;;;;43.05;15.18;;;;;;;0.02;100.00;100613.75;1735719;81;20967;-86
2022/02/04 04:07:24;;;;;;;44.70;15.55;;;;;;;0.00;100.00;100607.84;1760782;81;20922;-89
2022/02/04 04:09:57;;;;;;;45.12;16.95;;;;;;;-0.01;100.00;100603.54;1760802;81;20871;-87
2022/02/04 04:12:20;;;;;;;44.40;16.05;;;;;;;-0.03;100.00;100612.17;1746194;79;21134;-86
2022/02/04 04:14:51;;;;;;;43.90;16.05;;;;;;;-0.07;100.00;100613.06;1807991;79;21287;-86
2022/02/04 04:17:14;;;;;;;48.38;16.48;;;;;;;-0.03;100.00;100614.81;1807104;79;21524;-86
2022/02/04 04:19:40;;;;;;;49.15;16.65;;;;;;;-0.01;100.00;100614.13;1808363;79;20963;-86
2022/02/04 04:22:06;;;;;;;47.10;16.85;;;;;;;0.01;100.00;100613.45;1775240;79;21054;-87
2022/02/04 04:24:32;;;;;;;43.15;16.05;;;;;;;0.00;100.00;100613.14;1808027;79;20991;-86
2022/02/04 04:26:57;;;;;;;45.67;16.45;;;;;;;-0.02;100.00;100610.67;1775454;79;21186;-87
2022/02/04 04:29:23;;;;;;;52.13;16.73;;;;;;;0.00;100.00;100614.47;1808093;79;20872;-86
2022/02/04 04:31:49;;;;;;;43.40;16.48;;;;;;;0.03;100.00;100621.19;1808036;79;20975;-86
2022/02/04 04:34:15;;;;;;;52.33;17.55;;;;;;;0.05;100.00;100617.86;1808304;79;20940;-88
2022/02/04 04:36:42;;;;;;;47.98;16.15;;;;;;;0.06;100.00;100619.48;1808461;78;20885;-86
2022/02/04 04:39:24;;;;;;;47.05;15.72;;;;;;;-0.01;100.00;100618.92;1799374;78;21106;-87
2022/02/04 04:44:58;;;;;;;47.50;15.18;;;;;;;-0.05;100.00;100624.80;1742851;82;20996;-87
2022/02/04 05:30:10;;;;;;;48.75;15.72;;;;;;;-0.15;100.00;100666.15;1665359;83;21061;-87
2022/02/04 05:32:36;;;;;;;42.13;15.35;;;;;;;-0.14;100.00;100675.75;1702927;83;22004;-87
2022/02/04 05:35:08;;;;;;;41.05;14.60;;;;;;;-0.16;100.00;100679.08;1708704;84;21266;-87
2022/02/04 05:37:33;;;;;;;42.25;14.05;;;;;;;-0.14;100.00;100676.27;1699113;82;21488;-87
2022/02/04 05:40:03;;;;;;;39.40;14.35;;;;;;;-0.15;100.00;100680.71;1708703;83;21062;-87
2022/02/04 05:42:33;;;;;;;40.85;15.48;;;;;;;-0.14;100.00;100673.61;1751704;78;21033;-87
2022/02/04 05:45:02;;;;;;;47.88;15.72;;;;;;;-0.13;100.00;100678.70;1801900;79;21025;-87
2022/02/04 05:47:25;;;;;;;43.85;15.28;;;;;;;-0.12;100.00;100668.45;1801139;79;20985;-87
2022/02/04 05:58:06;;;;;;;47.00;15.15;;;;;;;-0.07;100.00;100682.44;1683068;83;21109;-87
2022/02/04 06:00:45;;;;;;;41.40;13.95;;;;;;;-0.13;100.00;100681.86;1699618;82;21061;-87
2022/02/04 06:08:29;;;;;;;41.75;14.33;;;;;;;-0.21;100.00;100689.41;1698449;82;21121;-87
2022/02/04 06:10:59;;;;;;;44.63;14.95;;;;;;;-0.20;100.00;100691.07;1692378;82;21035;-86
2022/02/04 06:23:42;;;;;;;46.15;14.87;;;;;;;-0.13;100.00;100693.78;1539730;92;21216;-86
2022/02/04 06:26:09;;;;;;;47.70;14.15;;;;;;;-0.10;100.00;100688.92;1551707;92;21293;-86
2022/02/04 06:28:38;;;;;;;45.63;14.83;;;;;;;-0.07;100.00;100688.55;1547190;92;21144;-87
2022/02/04 06:31:04;;;;;;;43.23;14.35;;;;;;;-0.08;100.00;100691.41;1550822;92;21134;-87
2022/02/04 06:33:31;;;;;;;49.05;16.27;;;;;;;-0.09;100.00;100683.96;1546256;92;21102;-87
2022/02/04 06:35:57;;;;;;;40.40;14.75;;;;;;;-0.07;100.00;100687.22;1546585;92;21137;-87
2022/02/04 06:38:23;;;;;;;42.93;13.85;;;;;;;-0.09;100.00;100685.29;1547040;92;21211;-86
2022/02/04 06:40:49;;;;;;;40.03;13.98;;;;;;;-0.01;100.00;100687.80;1546941;92;21127;-87
2022/02/04 06:43:15;;;;;;;42.67;14.25;;;;;;;0.05;100.00;100684.08;1546647;90;21018;-89
2022/02/04 06:45:40;;;;;;;43.30;14.98;;;;;;;0.05;100.00;100688.88;1515456;94;20943;-88
2022/02/04 06:48:07;;;;;;;36.77;12.80;;;;;;;0.06;100.00;100687.04;1499316;95;21271;-88
2022/02/04 06:50:33;;;;;;;39.58;14.63;;;;;;;0.07;100.00;100686.86;1496547;95;21133;-89
2022/02/04 06:52:59;;;;;;;40.05;13.53;;;;;;;0.09;100.00;100683.53;1528971;92;21563;-89
2022/02/04 06:55:25;;;;;;;46.15;16.00;;;;;;;0.10;100.00;100680.38;1549874;90;21408;-89
2022/02/04 06:57:53;;;;;;;43.05;14.70;;;;;;;0.08;100.00;100674.44;1630931;87;21012;-88
2022/02/04 07:00:21;;;;;;;39.85;13.43;;;;;;;0.08;100.00;100677.09;1727853;78;21034;-89
2022/02/04 07:02:48;;;;;;;41.80;14.43;;;;;;;0.12;100.00;100680.98;1772196;79;38928;-89
2022/02/04 07:05:15;;;;;;;40.52;13.98;;;;;;;0.12;100.00;100684.48;1781284;78;21046;-88
2022/02/04 07:07:47;;;;;;;38.02;13.40;;;;;;;0.10;100.00;100683.84;1792103;78;21103;-89
2022/02/04 07:10:20;;;;;;;40.17;13.53;;;;;;;0.14;100.00;100677.65;1776971;78;21080;-88
2022/02/04 07:12:50;;;;;;;38.67;14.18;;;;;;;0.19;100.00;100680.05;1789715;79;21023;-89
2022/02/04 07:20:23;;;;;;;37.25;13.70;;;;;;;0.32;100.00;100683.83;1690860;83;21066;-88
2022/02/04 07:22:49;;;;;;;34.23;12.98;;;;;;;0.34;100.00;100684.47;1702712;83;20892;-88
2022/02/04 07:25:15;;;;;;;38.33;13.65;;;;;;;0.37;100.00;100690.71;1700226;83;21130;-90
2022/02/04 07:27:43;;;;;;;38.40;13.90;;;;;;;0.39;100.00;100685.54;1682594;85;21048;-88
2022/02/04 07:30:10;;;;;;;39.27;14.05;;;;;;;0.41;100.00;100683.53;1678766;84;21590;-88
2022/02/04 07:32:43;;;;;;;39.70;14.40;;;;;;;0.41;100.00;100684.85;1679079;85;21018;-89
2022/02/04 07:40:56;;;;;;;38.05;12.75;;;;;;;0.69;100.00;100685.38;1683925;84;21059;-89
2022/02/04 07:43:25;;;;;;;36.73;13.03;;;;;;;0.71;100.00;100686.48;1685227;83;21066;-88
2022/02/04 07:45:52;;;;;;;37.35;12.93;;;;;;;0.74;100.00;100688.78;1685235;85;21089;-89
2022/02/04 07:48:18;;;;;;;38.85;12.93;;;;;;;0.80;100.00;100689.34;1685126;85;21054;-87
2022/02/04 07:50:47;;;;;;;36.48;13.43;;;;;;;0.73;100.00;100689.78;1682901;85;21866;-87
2022/02/04 07:53:14;;;;;;;33.67;12.35;;;;;;;0.72;100.00;100692.94;1773573;78;21090;-86
2022/02/04 07:55:44;;;;;;;35.35;12.45;;;;;;;0.72;100.00;100687.64;1780569;78;21030;-89
2022/02/04 07:58:12;;;;;;;39.35;14.23;;;;;;;0.81;100.00;100685.15;1747348;80;21055;-88
2022/02/04 08:00:40;;;;;;;37.75;13.78;;;;;;;0.83;100.00;100687.62;1738609;80;20999;-89
2022/02/04 08:03:31;;;;;;;37.55;13.32;;;;;;;0.83;100.00;100693.73;1749908;80;21138;-87
2022/02/04 08:05:54;;;;;;;36.93;12.80;;;;;;;0.80;100.00;100689.34;1747384;80;21106;-87
2022/02/04 08:08:26;;;;;;;30.97;12.50;;;;;;;0.90;100.00;100697.76;1745127;81;21150;-87
2022/02/04 08:11:11;;;;;;;29.30;11.83;;;;;;;0.94;100.00;100695.02;1720809;81;21057;-86
2022/02/04 08:13:36;;;;;;;32.03;12.07;;;;;;;0.97;100.00;100698.64;1727823;79;21034;-88
2022/02/04 08:18:55;;;;;;;27.98;12.23;;;;;;;0.77;100.00;100700.33;1602047;87;21068;-87
2022/02/04 08:34:40;;;;;;;36.15;12.73;;;;;;;0.79;100.00;100699.09;1550131;90;21103;-88
2022/02/04 08:55:25;;;;;;;26.45;11.03;;;;;;;0.86;100.00;100693.86;1505020;94;21521;-86
2022/02/04 08:58:03;;;;;;;30.50;11.75;;;;;;;0.89;100.00;100695.62;1453609;98;21155;-86
2022/02/04 09:00:28;;;;;;;28.62;11.75;;;;;;;0.96;100.00;100689.53;1419308;100;21080;-86
2022/02/04 09:02:56;;;;;;;30.75;11.48;;;;;;;1.10;100.00;100680.13;1420355;99;21215;-87
2022/02/04 09:05:30;;;;;;;35.48;13.05;;;;;;;1.18;100.00;100683.15;1415359;101;21166;-86
2022/02/04 09:10:19;;;;;;;35.85;13.72;;;;;;;1.34;100.00;100679.34;1409736;100;21227;-86
2022/02/04 09:23:26;;;;;;;31.05;11.43;;;;;;;1.52;100.00;100684.11;1361724;104;21794;-87
2022/02/04 09:25:53;;;;;;;30.45;11.38;;;;;;;1.56;100.00;100684.05;1357982;104;21216;-87
2022/02/04 09:28:19;;;;;;;27.75;11.65;;;;;;;1.55;100.00;100685.05;1349019;105;21216;-89
2022/02/04 09:30:46;;;;;;;33.10;11.68;;;;;;;1.51;100.00;100679.83;1349152;104;21818;-89
2022/02/04 09:33:17;;;;;;;35.03;12.40;;;;;;;1.55;100.00;100679.22;1347252;105;21421;-91
2022/02/04 09:35:44;;;;;;;31.85;11.53;;;;;;;1.57;100.00;100679.85;1354188;103;21172;-92
2022/02/04 09:38:23;;;;;;;28.40;11.05;;;;;;;1.57;100.00;100675.05;1376213;102;21191;-90
2022/02/04 09:40:49;;;;;;;30.20;11.33;;;;;;;1.54;100.00;100673.61;1364255;104;21631;-92
2022/02/04 09:43:15;;;;;;;35.30;12.03;;;;;;;1.58;100.00;100673.51;1380500;101;21145;-90
2022/02/04 09:45:41;;;;;;;31.12;11.65;;;;;;;1.51;100.00;100674.00;1386066;101;21183;-90
2022/02/04 09:48:11;;;;;;;33.28;12.37;;;;;;;1.55;100.00;100672.58;1382239;102;21707;-90
2022/02/04 09:50:42;;;;;;;35.98;13.32;;;;;;;1.67;100.00;100678.14;1382065;102;21294;-89
2022/02/04 10:12:16;;;;;;;30.48;12.50;;;;;;;1.64;100.00;100678.54;1447165;98;21248;-88
2022/02/04 10:14:53;;;;;;;32.67;11.57;;;;;;;1.65;100.00;100679.35;1447791;97;21164;-88
2022/02/04 10:17:24;;;;;;;32.67;11.73;;;;;;;1.56;100.00;100678.73;1448240;97;21611;-87
2022/02/04 10:22:28;;;;;;;29.95;11.15;;;;;;;1.46;100.00;100674.28;1618727;86;21069;-86
2022/02/04 10:25:08;;;;;;;31.00;11.95;;;;;;;1.46;100.00;100677.75;1634350;87;21365;-86
2022/02/04 10:27:35;;;;;;;33.00;13.18;;;;;;;1.49;100.00;100683.19;1639458;86;21041;-86
2022/02/04 10:30:16;;;;;;;33.00;12.40;;;;;;;1.45;100.00;100679.30;1639729;87;21029;-85
2022/02/04 10:32:51;;;;;;;34.48;12.80;;;;;;;1.44;100.00;100676.31;1639371;87;21056;-86
2022/02/04 10:35:29;;;;;;;33.15;12.00;;;;;;;1.30;100.00;100679.43;1639655;87;21271;-86
2022/02/04 10:38:21;;;;;;;34.65;12.50;;;;;;;1.22;100.00;100678.27;1639023;86;21189;-86
2022/02/04 10:40:59;;;;;;;31.20;11.45;;;;;;;1.10;100.00;100685.44;1541898;91;21046;-87
2022/02/04 10:48:59;;;;;;;36.08;13.28;;;;;;;1.01;100.00;100683.95;1607645;85;21079;-87
2022/02/04 11:01:58;;;;;;;33.45;11.95;;;;;;;0.92;100.00;100679.01;1675227;84;21563;-86
2022/02/04 11:04:21;;;;;;;35.60;12.53;;;;;;;0.88;100.00;100671.92;1596078;88;21126;-86
2022/02/04 11:07:09;;;;;;;39.75;13.95;;;;;;;0.95;100.00;100668.82;1579846;89;21178;-86
2022/02/04 11:09:33;;;;;;;34.53;12.88;;;;;;;0.98;100.00;100667.61;1523096;92;21569;-86
2022/02/04 11:33:55;;;;;;;37.60;13.03;;;;;;;1.33;100.00;100659.94;1645693;84;21003;-87
2022/02/04 11:57:05;;;;;;;31.82;12.47;;;;;;;1.48;100.00;100680.23;1632173;86;21244;-87
2022/02/04 11:59:38;;;;;;;32.55;12.82;;;;;;;1.36;100.00;100678.64;1582495;89;21206;-87
2022/02/04 12:02:33;;;;;;;37.65;12.25;;;;;;;1.38;100.00;100679.76;1612048;87;21109;-87
2022/02/04 12:05:15;;;;;;;30.32;11.53;;;;;;;1.29;100.00;100683.08;1607292;88;21096;-87
2022/02/04 12:08:05;;;;;;;28.30;11.45;;;;;;;1.21;100.00;100689.39;1604060;88;21148;-86
2022/02/04 12:10:46;;;;;;;28.27;10.95;;;;;;;1.10;100.00;100689.94;1607288;88;21092;-86
2022/02/04 12:13:15;;;;;;;32.98;12.18;;;;;;;1.06;100.00;100680.70;1606174;88;21173;-87
2022/02/04 12:16:05;;;;;;;31.10;11.97;;;;;;;1.09;100.00;100690.95;1614113;87;21091;-85
2022/02/04 12:18:44;;;;;;;32.15;12.23;;;;;;;1.07;100.00;100695.63;1611136;88;20995;-86
2022/02/04 12:21:16;;;;;;;32.20;11.57;;;;;;;1.12;100.00;100685.27;1579147;89;21026;-85
2022/02/04 12:23:48;;;;;;;34.17;12.00;;;;;;;1.12;100.00;100688.73;1589113;88;21065;-86
2022/02/04 12:26:33;;;;;;;27.95;10.93;;;;;;;1.14;100.00;100686.67;1546837;89;21586;-85
2022/02/04 12:29:14;;;;;;;32.75;11.50;;;;;;;1.16;100.00;100683.84;1578061;89;21199;-85
2022/02/04 12:31:47;;;;;;;28.23;11.70;;;;;;;1.16;100.00;100689.66;1524096;92;21484;-85
2022/02/04 12:34:18;;;;;;;30.57;11.43;;;;;;;1.11;100.00;100689.72;1523646;92;21096;-85
2022/02/04 12:36:57;;;;;;;30.80;11.65;;;;;;;1.12;100.00;100694.03;1545231;91;21142;-85
2022/02/04 12:39:29;;;;;;;31.15;11.85;;;;;;;1.18;100.00;100692.44;1566778;90;22053;-86
2022/02/04 12:42:00;;;;;;;34.00;13.22;;;;;;;1.23;100.00;100693.97;1519506;94;21106;-85
2022/02/04 12:44:35;;;;;;;35.45;11.73;;;;;;;1.32;100.00;100701.27;1517247;94;21161;-85
2022/02/04 12:47:06;;;;;;;28.73;12.13;;;;;;;1.30;100.00;100694.84;1521034;94;21210;-85
2022/02/04 12:49:36;;;;;;;27.70;11.25;;;;;;;1.25;100.00;100693.80;1471248;96;21176;-86
2022/02/04 12:55:10;;;;;;;32.95;11.95;;;;;;;1.18;100.00;100700.40;1441859;99;21037;-85
2022/02/04 12:57:54;;;;;;;31.33;11.12;;;;;;;1.01;100.00;100693.76;1466607;95;21121;-84
2022/02/04 13:08:22;;;;;;;26.65;10.48;;;;;;;1.02;100.00;100707.33;1413706;100;21109;-84
2022/02/04 13:11:11;;;;;;;29.12;10.55;;;;;;;1.04;100.00;100705.31;1425277;99;21162;-84
2022/02/04 13:16:27;;;;;;;27.17;10.30;;;;;;;0.96;100.00;100712.09;1424603;98;21212;-84
2022/02/04 13:18:59;;;;;;;25.60;10.10;;;;;;;0.86;100.00;100713.76;1389378;101;21270;-84
2022/02/04 13:21:26;;;;;;;27.82;10.50;;;;;;;0.84;100.00;100725.06;1382829;102;21161;-83
2022/02/04 13:23:52;;;;;;;24.35;10.03;;;;;;;0.76;100.00;100723.36;1416795;99;21651;-84
2022/02/04 13:29:00;;;;;;;29.63;10.70;;;;;;;0.73;100.00;100727.72;1460929;97;21257;-86
2022/02/04 13:31:28;;;;;;;26.40;10.48;;;;;;;0.73;100.00;100727.72;1467774;97;21131;-89
2022/02/04 13:33:58;;;;;;;24.47;9.75;;;;;;;0.73;100.00;100729.05;1467369;97;21683;-87
2022/02/04 13:39:23;;;;;;;27.60;10.40;;;;;;;0.73;100.00;100736.19;1482911;95;21153;-90
2022/02/04 13:42:09;;;;;;;25.90;9.50;;;;;;;0.74;100.00;100736.52;1520262;93;21122;-90
2022/02/04 13:44:54;;;;;;;27.65;10.70;;;;;;;0.67;100.00;100744.40;1482105;96;21605;-88
2022/02/04 13:47:25;;;;;;;25.88;10.40;;;;;;;0.56;100.00;100743.58;1465809;96;21385;-88
2022/02/04 13:55:42;;;;;;;26.48;9.60;;;;;;;0.36;100.00;100756.16;1350845;104;20179;-90
2022/02/04 14:01:09;;;;;;;24.07;10.10;;;;;;;0.21;100.00;100759.37;1358326;102;21208;-88
2022/02/04 14:03:38;;;;;;;22.93;9.93;;;;;;;0.10;100.00;100745.28;1364638;103;28372;-88
2022/02/04 14:06:15;;;;;;;21.37;9.37;;;;;;;0.13;100.00;100751.53;1371521;103;21300;-88
2022/02/04 14:08:54;;;;;;;26.23;9.75;;;;;;;0.09;100.00;100752.90;1355657;103;21266;-89
2022/02/04 14:11:37;;;;;;;26.35;10.03;;;;;;;0.07;100.00;100750.95;1323795;105;21212;-91
2022/02/04 14:14:26;;;;;;;24.07;9.45;;;;;;;0.03;100.00;100751.00;1361537;103;21222;-90
2022/02/04 14:20:26;;;;;;;28.75;10.60;;;;;;;-0.03;100.00;100753.89;1370718;104;21270;-89
2022/02/04 14:22:52;;;;;;;28.12;10.23;;;;;;;-0.06;100.00;100751.13;1370963;103;21216;-89
2022/02/04 14:25:20;;;;;;;29.23;10.85;;;;;;;-0.08;100.00;100750.48;1377514;100;21278;-89
2022/02/04 14:27:50;;;;;;;30.12;11.53;;;;;;;-0.11;100.00;100757.48;1438357;99;21150;-89
2022/02/04 14:30:19;;;;;;;31.05;11.70;;;;;;;-0.15;100.00;100758.84;1439101;98;21192;-90
2022/02/04 14:51:56;;;;;;;25.55;9.40;;;;;;;-0.36;100.00;100795.34;1434478;98;21282;-89
2022/02/04 14:54:32;;;;;;;23.30;8.95;;;;;;;-0.40;100.00;100793.27;1471908;96;21155;-89
2022/02/04 15:01:59;;;;;;;23.57;9.35;;;;;;;-0.54;100.00;100792.25;1520351;89;21079;-90
2022/02/04 15:04:37;;;;;;;23.75;9.38;;;;;;;-0.55;100.00;100791.42;1614042;87;21138;-89
2022/02/04 15:06:59;;;;;;;27.73;10.10;;;;;;;-0.55;100.00;100791.94;1607067;87;21148;-89
2022/02/04 15:09:20;;;;;;;22.20;8.98;;;;;;;-0.56;100.00;100800.86;1647549;86;21073;-90
2022/02/04 15:11:46;;;;;;;24.35;9.65;;;;;;;-0.55;100.00;100805.17;1620856;87;21037;-88
2022/02/04 15:14:12;;;;;;;25.92;9.33;;;;;;;-0.57;100.00;100807.16;1633624;87;21160;-89
2022/02/04 15:16:42;;;;;;;29.48;10.13;;;;;;;-0.55;100.00;100809.14;1614830;86;21727;-89
2022/02/04 15:19:10;;;;;;;24.67;9.50;;;;;;;-0.56;100.00;100810.13;1634218;87;21061;-89
2022/02/04 15:21:41;;;;;;;20.57;8.58;;;;;;;-0.56;100.00;100812.30;1637029;85;21561;-88
2022/02/04 15:24:11;;;;;;;25.12;10.00;;;;;;;-0.59;100.00;100815.30;1635659;86;21125;-89
2022/02/04 15:26:37;;;;;;;25.37;9.23;;;;;;;-0.60;100.00;100822.09;1603570;87;21526;-90
2022/02/04 15:29:08;;;;;;;24.90;9.65;;;;;;;-0.69;100.00;100815.55;1624105;87;21079;-89
2022/02/04 15:31:43;;;;;;;23.30;9.05;;;;;;;-0.63;100.00;100827.23;1677157;83;21555;-90
2022/02/04 15:34:05;;;;;;;25.43;9.88;;;;;;;-0.59;100.00;100841.77;1682737;84;21097;-90
2022/02/04 15:36:41;;;;;;;27.42;9.73;;;;;;;-0.57;100.00;100841.06;1665325;85;21031;-90
2022/02/04 15:39:10;;;;;;;29.50;10.72;;;;;;;-0.57;100.00;100843.71;1685505;84;21610;-89
2022/02/04 15:41:38;;;;;;;25.68;9.58;;;;;;;-0.69;100.00;100820.02;1673629;84;21855;-90
2022/02/04 15:44:16;;;;;;;28.55;9.98;;;;;;;-0.55;100.00;100839.58;1671587;85;21059;-91
2022/02/04 16:02:49;;;;;;;24.85;9.88;;;;;;;-0.70;100.00;100862.05;1563680;89;21201;-90
2022/02/04 16:05:10;;;;;;;27.60;10.23;;;;;;;-0.71;100.00;100867.00;1531685;92;21630;-90
2022/02/04 16:07:38;;;;;;;35.33;11.33;;;;;;;-0.73;100.00;100867.19;1556662;91;21240;-92
2022/02/04 16:10:26;;;;;;;31.12;10.43;;;;;;;-0.74;100.00;100860.74;1553198;91;21157;-91
2022/02/04 16:18:17;;;;;;;25.45;9.45;;;;;;;-0.77;100.00;100879.11;1470984;96;21257;-90
2022/02/04 16:23:30;;;;;;;31.65;10.80;;;;;;;-0.85;100.00;100884.97;1432774;97;21649;-90
2022/02/04 16:31:16;;;;;;;;;;;;;;;;;;;;;
2022/02/04 16:33:38;;;;;;;22.73;9.25;;;;;;;-0.87;100.00;100898.89;1331224;105;21401;-90
2022/02/04 16:39:36;;;;;;;24.80;9.53;;;;;;;-0.87;100.00;100902.36;1322937;105;21586;-91
2022/02/04 16:42:21;;;;;;;24.67;10.08;;;;;;;-0.89;100.00;100904.86;1328553;105;21190;-90
2022/02/04 16:44:47;;;;;;;22.90;8.38;;;;;;;-1.04;100.00;100883.14;1330863;106;21712;-91
2022/02/04 16:47:28;;;;;;;23.47;9.38;;;;;;;-0.93;100.00;100905.72;1358691;103;22657;-90
2022/02/04 16:50:02;;;;;;;24.80;9.45;;;;;;;-0.97;100.00;100903.93;1346331;105;21635;-90
2022/02/04 16:52:34;;;;;;;;;;;;;;;-0.98;100.00;100904.91;1351462;104;21143;-91
2022/02/04 16:55:29;;;;;;;24.18;9.13;;;;;;;-0.98;100.00;100904.09;1342071;104;20435;-89
2022/02/04 16:58:00;;;;;;;25.75;9.50;;;;;;;-0.99;100.00;100906.42;1342369;104;21238;-90
2022/02/04 17:00:27;;;;;;;24.87;9.48;;;;;;;-1.02;100.00;100911.56;1351654;103;21351;-90
2022/02/04 17:05:35;;;;;;;25.65;9.88;;;;;;;-0.97;100.00;100911.86;1345739;106;21198;-91
2022/02/04 17:07:56;;;;;;;24.82;9.45;;;;;;;-1.01;100.00;100918.98;1332802;106;21184;-91
2022/02/04 17:14:02;;;;;;;29.20;10.65;;;;;;;-1.07;100.00;100921.02;1352886;104;21191;-89
2022/02/04 17:16:33;;;;;;;27.25;10.72;;;;;;;-1.08;100.00;100922.84;1410728;101;21351;-91
2022/02/04 17:19:06;;;;;;;25.88;10.45;;;;;;;-1.05;100.00;100921.67;1400580;100;21134;-90
2022/02/04 17:21:37;;;;;;;23.30;9.20;;;;;;;-1.04;100.00;100917.52;1398335;101;21161;-90
2022/02/04 17:24:13;;;;;;;22.62;9.88;;;;;;;-1.06;100.00;100915.56;1398742;102;21270;-90
2022/02/04 17:26:40;;;;;;;23.55;9.53;;;;;;;-1.07;100.00;100917.87;1401456;101;21695;-91
2022/02/04 17:29:14;;;;;;;25.77;9.58;;;;;;;-1.05;100.00;100918.52;1454818;96;21191;-91
2022/02/04 17:31:44;;;;;;;25.32;10.45;;;;;;;-1.04;100.00;100917.52;1445889;98;21110;-90
2022/02/04 17:34:17;;;;;;;26.48;9.75;;;;;;;-1.02;100.00;100912.88;1491710;95;21161;-90
2022/02/04 17:36:44;;;;;;;23.83;9.05;;;;;;;-1.02;100.00;100910.74;1470621;96;21140;-91
2022/02/04 17:39:18;;;;;;;23.92;9.50;;;;;;;-1.04;100.00;100919.34;1482747;95;21429;-91
2022/02/04 17:41:45;;;;;;;20.55;8.75;;;;;;;-1.05;100.00;100914.56;1481606;94;21171;-91
2022/02/04 17:44:17;;;;;;;25.43;9.55;;;;;;;-1.03;100.00;100915.22;1429789;99;21198;-91
2022/02/04 17:46:46;;;;;;;27.58;9.90;;;;;;;-1.02;100.00;100915.53;1428707;98;21569;-90
2022/02/04 17:52:14;;;;;;;;;;;;;;;;;;;;;
2022/02/04 17:54:35;;;;;;;25.97;10.38;;;;;;;-1.01;100.00;100926.42;1317702;107;21824;-93
2022/02/04 18:01:35;;;;;;;27.27;10.45;;;;;;;-0.98;100.00;100923.92;1269732;110;21282;-91
2022/02/04 18:09:03;;;;;;;27.45;10.75;;;;;;;-0.98;100.00;100924.75;1270544;112;21322;-91
2022/02/04 18:11:30;;;;;;;28.57;9.90;;;;;;;-0.96;100.00;100930.69;1264078;113;21261;-91
2022/02/04 18:14:02;;;;;;;23.73;9.08;;;;;;;-0.97;100.00;100940.11;1264185;113;21217;-91
2022/02/04 18:16:30;;;;;;;26.95;10.72;;;;;;;-0.98;100.00;100942.44;1265403;112;21303;-91
2022/02/04 18:21:39;;;;;;;28.80;10.80;;;;;;;-0.99;100.00;100940.30;1274280;110;21207;-91
2022/02/04 18:24:06;;;;;;;30.40;10.45;;;;;;;-1.02;100.00;100931.91;1278002;109;21184;-91
2022/02/04 18:26:35;;;;;;;26.05;9.70;;;;;;;-1.03;100.00;100935.52;1240806;112;21263;-93
2022/02/04 18:29:05;;;;;;;24.80;10.13;;;;;;;-1.03;100.00;100936.84;1237401;114;21282;-91